createdAt,value
2023-05-06T00:03:57.159Z,17.90
2023-05-06T00:06:27.395Z,17.70
2023-05-06T00:08:55.173Z,17.60
2023-05-06T00:11:22.996Z,17.50
2023-05-06T00:13:50.903Z,17.50
2023-05-06T00:16:18.754Z,17.50
2023-05-06T00:23:44.238Z,17.20
2023-05-06T00:26:12.001Z,17.20
2023-05-06T00:31:09.488Z,17.30
2023-05-06T00:33:37.282Z,17.40
2023-05-06T00:36:05.683Z,17.40
2023-05-06T00:41:03.355Z,17.60
2023-05-06T00:43:31.130Z,17.50
2023-05-06T00:45:58.959Z,17.50
2023-05-06T00:48:26.752Z,17.50
2023-05-06T00:50:54.982Z,17.50
2023-05-06T00:53:22.711Z,17.50
2023-05-06T00:55:51.153Z,17.50
2023-05-06T00:58:20.469Z,17.50
2023-05-06T01:03:17.245Z,17.40
2023-05-06T01:05:52.388Z,17.40
2023-05-06T01:08:26.323Z,17.40
2023-05-06T01:10:58.239Z,17.30
2023-05-06T01:13:35.401Z,17.40
2023-05-06T01:16:05.388Z,17.40
2023-05-06T01:18:34.024Z,17.40
2023-05-06T01:21:03.308Z,17.30
2023-05-06T01:23:51.909Z,17.10
2023-05-06T01:26:19.815Z,17.10
2023-05-06T01:28:47.548Z,17.00
2023-05-06T01:31:21.249Z,17.10
2023-05-06T01:33:55.281Z,17.00
2023-05-06T01:36:29.517Z,17.00
2023-05-06T01:39:06.657Z,17.10
2023-05-06T01:41:36.067Z,17.20
2023-05-06T01:44:07.101Z,17.20
2023-05-06T01:46:36.244Z,17.20
2023-05-06T01:49:06.589Z,17.10
2023-05-06T01:51:34.801Z,17.10
2023-05-06T01:54:04.333Z,17.20
2023-05-06T01:59:00.880Z,17.20
2023-05-06T02:01:28.714Z,17.20
2023-05-06T02:03:56.704Z,17.20
2023-05-06T02:06:24.531Z,17.20
2023-05-06T02:08:52.955Z,17.10
2023-05-06T02:11:22.060Z,16.90
2023-05-06T02:13:49.903Z,16.90
2023-05-06T02:16:18.101Z,16.90
2023-05-06T02:18:45.918Z,16.80
2023-05-06T02:23:41.890Z,16.40
2023-05-06T02:26:10.591Z,16.40
2023-05-06T02:28:39.692Z,16.40
2023-05-06T02:31:07.591Z,16.40
2023-05-06T02:33:35.880Z,16.40
2023-05-06T02:36:03.747Z,16.40
2023-05-06T02:38:31.543Z,16.50
2023-05-06T02:43:27.532Z,16.50
2023-05-06T02:45:56.671Z,16.50
2023-05-06T02:48:24.540Z,16.50
2023-05-06T02:50:52.945Z,16.50
2023-05-06T02:53:20.771Z,16.50
2023-05-06T02:55:48.532Z,16.50
2023-05-06T02:58:16.368Z,16.50
2023-05-06T03:00:44.280Z,16.50
2023-05-06T03:03:13.425Z,16.20
2023-05-06T03:05:41.155Z,16.20
2023-05-06T03:08:08.888Z,16.20
2023-05-06T03:13:04.913Z,16.00
2023-05-06T03:15:32.974Z,16.00
2023-05-06T03:18:00.828Z,16.10
2023-05-06T03:20:30.554Z,15.90
2023-05-06T03:22:58.411Z,15.70
2023-05-06T03:25:26.275Z,15.70
2023-05-06T03:30:22.287Z,15.70
2023-05-06T03:32:50.113Z,15.60
2023-05-06T03:35:18.065Z,15.60
2023-05-06T03:37:47.177Z,15.70
2023-05-06T03:40:15.206Z,15.70
2023-05-06T03:42:43.031Z,15.70
2023-05-06T03:45:11.236Z,15.70
2023-05-06T03:47:39.246Z,15.80
2023-05-06T03:50:08.042Z,15.80
2023-05-06T03:52:35.881Z,15.90
2023-05-06T03:55:05.270Z,15.80
2023-05-06T03:57:33.187Z,15.80
2023-05-06T04:02:29.967Z,15.80
2023-05-06T04:04:57.854Z,15.80
2023-05-06T04:09:53.800Z,15.80
2023-05-06T04:12:22.888Z,15.80
2023-05-06T04:14:50.620Z,15.70
2023-05-06T04:17:18.391Z,15.50
2023-05-06T04:22:14.989Z,15.20
2023-05-06T04:24:45.636Z,15.30
2023-05-06T04:27:13.390Z,15.30
2023-05-06T04:29:42.809Z,15.30
2023-05-06T04:32:11.693Z,15.30
2023-05-06T04:34:39.565Z,15.40
2023-05-06T04:37:07.346Z,15.40
2023-05-06T04:39:37.039Z,15.50
2023-05-06T04:44:34.074Z,15.20
2023-05-06T04:47:03.269Z,15.20
2023-05-06T04:49:31.233Z,15.20
2023-05-06T04:51:59.100Z,15.20
2023-05-06T04:54:26.952Z,15.30
2023-05-06T04:56:55.655Z,15.30
2023-05-06T04:59:23.562Z,15.40
2023-05-06T05:01:51.346Z,15.50
2023-05-06T05:04:20.480Z,15.60
2023-05-06T05:06:48.220Z,15.70
2023-05-06T05:09:16.045Z,15.70
2023-05-06T05:11:43.857Z,15.70
2023-05-06T05:14:11.644Z,15.80
2023-05-06T05:16:39.459Z,15.90
2023-05-06T05:21:38.760Z,16.00
2023-05-06T05:24:07.199Z,16.00
2023-05-06T05:26:34.992Z,16.10
2023-05-06T05:29:02.903Z,16.10
2023-05-06T05:31:31.191Z,16.20
2023-05-06T05:33:59.076Z,16.20
2023-05-06T05:36:27.582Z,16.10
2023-05-06T05:38:56.704Z,16.20
2023-05-06T05:41:26.470Z,16.20
2023-05-06T05:43:54.231Z,16.30
2023-05-06T05:46:22.101Z,16.30
2023-05-06T05:48:49.869Z,16.30
2023-05-06T05:51:17.666Z,16.40
2023-05-06T05:53:45.425Z,16.40
2023-05-06T05:56:14.711Z,16.50
2023-05-06T05:58:42.505Z,16.50
2023-05-06T06:01:10.285Z,16.60
2023-05-06T06:03:38.763Z,16.60
2023-05-06T06:06:07.056Z,16.60
2023-05-06T06:08:35.052Z,16.60
2023-05-06T06:11:04.447Z,16.60
2023-05-06T06:13:33.627Z,16.70
2023-05-06T06:16:01.570Z,16.70
2023-05-06T06:18:29.825Z,16.60
2023-05-06T06:20:57.573Z,16.60
2023-05-06T06:23:25.387Z,16.70
2023-05-06T06:25:53.373Z,16.70
2023-05-06T06:28:21.250Z,16.90
2023-05-06T06:30:50.389Z,16.80
2023-05-06T06:33:18.150Z,16.90
2023-05-06T06:35:45.922Z,16.90
2023-05-06T06:38:13.677Z,17.00
2023-05-06T06:40:41.498Z,17.00
2023-05-06T06:45:37.415Z,17.10
2023-05-06T06:48:07.078Z,17.20
2023-05-06T06:50:34.952Z,17.20
2023-05-06T06:53:06.158Z,17.20
2023-05-06T06:55:34.240Z,17.20
2023-05-06T06:58:01.994Z,17.30
2023-05-06T07:00:29.847Z,17.30
2023-05-06T07:02:57.656Z,17.30
2023-05-06T07:05:27.865Z,17.40
2023-05-06T07:07:55.781Z,17.40
2023-05-06T07:10:23.985Z,17.40
2023-05-06T07:12:51.940Z,17.40
2023-05-06T07:15:19.949Z,17.50
2023-05-06T07:17:47.858Z,17.60
2023-05-06T07:20:16.154Z,17.60
2023-05-06T07:22:45.713Z,17.70
2023-05-06T07:25:13.842Z,17.80
2023-05-06T07:27:41.620Z,17.80
2023-05-06T07:30:10.158Z,17.90
2023-05-06T07:32:37.996Z,18.00
2023-05-06T07:35:06.596Z,18.10
2023-05-06T07:37:34.444Z,18.20
2023-05-06T07:40:03.579Z,18.10
2023-05-06T07:42:31.381Z,18.10
2023-05-06T07:44:59.161Z,18.20
2023-05-06T07:47:29.355Z,18.20
2023-05-06T07:49:57.386Z,18.20
2023-05-06T07:52:25.552Z,18.30
2023-05-06T07:54:54.455Z,18.30
2023-05-06T07:57:23.675Z,18.30
2023-05-06T07:59:52.868Z,18.40
2023-05-06T08:02:20.747Z,18.50
2023-05-06T08:04:50.896Z,18.70
2023-05-06T08:07:19.774Z,18.70
2023-05-06T08:09:47.592Z,18.90
2023-05-06T08:12:15.865Z,18.90
2023-05-06T08:14:45.422Z,18.90
2023-05-06T08:17:15.852Z,18.90
2023-05-06T08:19:43.644Z,18.90
2023-05-06T08:22:11.558Z,19.00
2023-05-06T08:24:39.376Z,19.10
2023-05-06T08:27:07.157Z,19.30
2023-05-06T08:29:34.982Z,19.40
2023-05-06T08:32:04.270Z,19.40
2023-05-06T08:34:32.261Z,19.40
2023-05-06T08:37:00.391Z,19.50
2023-05-06T08:39:28.899Z,19.60
2023-05-06T08:41:58.846Z,19.60
2023-05-06T08:44:26.970Z,19.70
2023-05-06T08:46:55.558Z,19.70
2023-05-06T08:49:24.880Z,19.80
2023-05-06T08:51:53.455Z,19.90
2023-05-06T08:54:24.048Z,19.90
2023-05-06T08:56:54.817Z,19.70
2023-05-06T08:59:25.491Z,19.80
2023-05-06T09:01:56.246Z,19.80
2023-05-06T09:04:25.910Z,19.90
2023-05-06T09:06:53.859Z,19.90
2023-05-06T09:09:21.692Z,20.00
2023-05-06T09:11:53.909Z,20.00
2023-05-06T09:14:22.838Z,20.10
2023-05-06T09:16:52.823Z,20.20
2023-05-06T09:19:25.705Z,20.20
2023-05-06T09:21:53.521Z,20.20
2023-05-06T09:24:21.739Z,20.30
2023-05-06T09:26:49.698Z,20.40
2023-05-06T09:29:17.504Z,20.50
2023-05-06T09:31:46.830Z,20.50
2023-05-06T09:34:15.363Z,20.50
2023-05-06T09:36:45.351Z,20.50
2023-05-06T09:39:13.147Z,20.50
2023-05-06T09:41:41.145Z,20.50
2023-05-06T09:44:09.260Z,20.50
2023-05-06T09:46:37.754Z,20.60
2023-05-06T09:49:05.734Z,20.60
2023-05-06T09:51:33.702Z,20.70
2023-05-06T09:54:03.709Z,20.60
2023-05-06T09:59:04.204Z,20.90
2023-05-06T10:01:36.799Z,20.90
2023-05-06T10:04:09.842Z,21.00
2023-05-06T10:06:40.901Z,21.00
2023-05-06T10:09:10.262Z,21.10
2023-05-06T10:11:38.218Z,21.10
2023-05-06T10:14:07.871Z,21.10
2023-05-06T10:16:40.073Z,20.80
2023-05-06T10:19:09.318Z,20.80
2023-05-06T10:21:40.431Z,20.90
2023-05-06T10:26:46.604Z,20.90
2023-05-06T10:31:49.348Z,21.30
2023-05-06T10:34:20.539Z,21.50
2023-05-06T10:36:51.867Z,21.60
2023-05-06T10:39:20.902Z,21.50
2023-05-06T10:41:50.510Z,21.40
2023-05-06T10:44:18.319Z,21.30
2023-05-06T10:46:59.682Z,20.90
2023-05-06T10:49:29.105Z,23.30
2023-05-06T10:52:17.037Z,21.40
2023-05-06T10:54:52.124Z,21.40
2023-05-06T10:57:26.515Z,21.50
2023-05-06T11:05:02.280Z,21.20
2023-05-06T11:07:30.172Z,21.20
2023-05-06T11:09:59.565Z,21.20
2023-05-06T11:12:56.801Z,21.20
2023-05-06T11:15:38.539Z,21.20
2023-05-06T11:18:40.177Z,21.20
2023-05-06T11:21:37.930Z,21.20
2023-05-06T11:26:44.922Z,21.10
2023-05-06T11:29:17.411Z,21.20
2023-05-06T11:31:46.385Z,21.20
2023-05-06T11:34:21.260Z,21.30
2023-05-06T11:36:56.977Z,21.30
2023-05-06T11:39:25.659Z,21.40
2023-05-06T11:41:54.708Z,21.50
2023-05-06T11:44:28.250Z,21.50
2023-05-06T11:47:00.828Z,21.40
2023-05-06T11:49:28.904Z,21.50
2023-05-06T11:51:58.110Z,21.50
2023-05-06T11:54:28.073Z,21.60
2023-05-06T11:56:57.215Z,21.60
2023-05-06T11:59:31.615Z,21.50
2023-05-06T12:02:01.802Z,21.60
2023-05-06T12:04:37.557Z,21.60
2023-05-06T12:07:07.494Z,21.60
2023-05-06T12:09:36.014Z,21.50
2023-05-06T12:12:06.022Z,21.40
2023-05-06T12:14:37.652Z,21.50
2023-05-06T12:17:05.928Z,21.60
2023-05-06T12:19:33.995Z,21.50
2023-05-06T12:22:15.825Z,21.60
2023-05-06T12:27:12.060Z,21.40
2023-05-06T12:32:10.817Z,21.50
2023-05-06T12:34:39.479Z,21.60
2023-05-06T12:39:36.624Z,21.70
2023-05-06T12:42:04.554Z,21.80
2023-05-06T12:44:33.734Z,21.90
2023-05-06T12:47:04.940Z,21.80
2023-05-06T12:49:47.658Z,21.80
2023-05-06T12:52:16.113Z,21.90
2023-05-06T12:54:44.089Z,22.00
2023-05-06T12:57:11.866Z,22.10
2023-05-06T12:59:40.504Z,22.20
2023-05-06T13:02:09.663Z,22.20
2023-05-06T13:04:37.607Z,22.40
2023-05-06T13:07:05.436Z,22.50
2023-05-06T13:09:33.309Z,22.60
2023-05-06T13:12:02.351Z,22.80
2023-05-06T13:14:30.119Z,22.80
2023-05-06T13:19:33.313Z,22.60
2023-05-06T13:22:01.921Z,22.60
2023-05-06T13:24:30.021Z,22.50
2023-05-06T13:34:25.968Z,22.90
2023-05-06T13:36:56.602Z,23.00
2023-05-06T13:39:25.032Z,23.10
2023-05-06T13:41:54.036Z,23.00
2023-05-06T13:44:22.672Z,22.80
2023-05-06T13:46:50.559Z,22.80
2023-05-06T13:49:19.496Z,22.80
2023-05-06T13:51:47.354Z,22.70
2023-05-06T13:54:16.516Z,22.80
2023-05-06T13:56:44.315Z,22.80
2023-05-06T14:01:42.521Z,22.90
2023-05-06T14:09:06.889Z,23.00
2023-05-06T14:11:36.142Z,23.20
2023-05-06T14:19:00.628Z,23.60
2023-05-06T14:21:28.372Z,23.70
2023-05-06T14:23:56.616Z,23.80
2023-05-06T14:26:24.570Z,23.70
2023-05-06T14:28:54.037Z,23.80
2023-05-06T14:36:20.549Z,23.90
2023-05-06T14:46:15.901Z,23.80
2023-05-06T14:48:45.242Z,23.80
2023-05-06T14:56:11.505Z,23.70
2023-05-06T15:01:08.256Z,23.50
2023-05-06T15:03:37.752Z,23.50
2023-05-06T15:08:34.266Z,23.30
2023-05-06T15:11:04.195Z,23.40
2023-05-06T15:16:00.462Z,23.30
2023-05-06T15:18:28.260Z,23.10
2023-05-06T15:21:00.889Z,22.90
2023-05-06T15:23:29.092Z,22.70
2023-05-06T15:25:58.487Z,22.50
2023-05-06T15:33:22.597Z,22.30
2023-05-06T15:35:50.493Z,21.60
2023-05-06T15:38:19.574Z,21.50
2023-05-06T15:40:51.875Z,21.50
2023-05-06T15:43:23.600Z,21.60
2023-05-06T15:45:52.361Z,21.60
2023-05-06T15:55:52.924Z,21.40
2023-05-06T15:58:24.273Z,21.40
2023-05-06T16:00:52.111Z,21.50
2023-05-06T16:03:20.196Z,21.50
2023-05-06T16:05:48.307Z,21.60
2023-05-06T16:08:16.079Z,21.60
2023-05-06T16:10:43.966Z,21.60
2023-05-06T16:13:13.265Z,21.60
2023-05-06T16:15:41.753Z,21.70
2023-05-06T16:23:06.944Z,21.70
2023-05-06T16:28:03.548Z,21.60
2023-05-06T16:30:32.721Z,21.60
2023-05-06T16:33:00.643Z,21.60
2023-05-06T16:35:28.483Z,21.70
2023-05-06T16:37:56.337Z,21.60
2023-05-06T16:45:20.559Z,21.60
2023-05-06T16:47:50.022Z,21.70
2023-05-06T16:50:18.070Z,21.70
2023-05-06T16:52:46.017Z,21.70
2023-05-06T16:55:14.011Z,21.70
2023-05-06T16:57:42.273Z,21.60
2023-05-06T17:00:11.920Z,21.70
2023-05-06T17:02:40.926Z,21.60
2023-05-06T17:05:10.908Z,21.60
2023-05-06T17:07:39.095Z,21.50
2023-05-06T17:10:08.042Z,21.50
2023-05-06T17:12:36.352Z,21.50
2023-05-06T17:15:05.104Z,21.50
2023-05-06T17:17:33.140Z,21.50
2023-05-06T17:20:01.032Z,21.50
2023-05-06T17:22:30.105Z,21.50
2023-05-06T17:24:58.091Z,21.50
2023-05-06T17:27:26.056Z,21.50
2023-05-06T17:29:54.056Z,21.50
2023-05-06T17:34:50.619Z,21.50
2023-05-06T17:44:44.569Z,21.40
2023-05-06T17:47:12.363Z,21.40
2023-05-06T17:49:40.545Z,21.40
2023-05-06T18:06:59.321Z,21.20
2023-05-06T18:09:27.408Z,21.20
2023-05-06T18:14:24.703Z,21.10
2023-05-06T18:16:52.933Z,21.10
2023-05-06T18:19:20.706Z,21.20
2023-05-06T18:21:48.533Z,21.10
2023-05-06T18:24:17.006Z,21.10
2023-05-06T18:29:14.594Z,21.10
2023-05-06T18:31:44.076Z,21.10
2023-05-06T18:34:12.138Z,21.00
2023-05-06T18:36:40.101Z,21.00
2023-05-06T18:39:08.175Z,21.00
2023-05-06T18:44:05.015Z,20.90
2023-05-06T18:46:35.642Z,20.90
2023-05-06T18:49:04.708Z,20.90
2023-05-06T18:51:32.747Z,20.90
2023-05-06T18:54:00.883Z,20.90
2023-05-06T18:56:28.739Z,20.80
2023-05-06T19:01:26.067Z,20.80
2023-05-06T19:03:59.647Z,20.80
2023-05-06T19:06:35.809Z,20.70
2023-05-06T19:09:13.426Z,20.70
2023-05-06T19:11:42.330Z,20.70
2023-05-06T19:14:10.911Z,20.70
2023-05-06T19:16:44.060Z,20.70
2023-05-06T19:19:12.600Z,20.60
2023-05-06T19:21:54.869Z,20.60
2023-05-06T19:24:26.136Z,20.60
2023-05-06T19:26:54.783Z,20.50
2023-05-06T19:29:26.183Z,20.50
2023-05-06T19:32:03.900Z,20.40
2023-05-06T19:34:32.370Z,20.30
2023-05-06T19:37:05.129Z,20.30
2023-05-06T19:39:35.366Z,20.20
2023-05-06T19:42:05.113Z,20.10
2023-05-06T19:49:42.235Z,19.90
2023-05-06T19:52:12.080Z,19.90
2023-05-06T19:54:40.724Z,19.90
2023-05-06T19:57:11.365Z,19.80
2023-05-06T19:59:47.490Z,19.70
2023-05-06T20:02:19.861Z,19.70
2023-05-06T20:04:59.816Z,19.60
2023-05-06T20:10:06.875Z,19.50
2023-05-06T20:12:35.232Z,19.40
2023-05-06T20:15:08.674Z,19.30
2023-05-06T20:20:09.821Z,19.30
2023-05-06T20:22:48.018Z,19.20
2023-05-06T20:25:19.861Z,19.10
2023-05-06T20:27:49.898Z,19.10
2023-05-06T20:30:21.793Z,18.90
2023-05-06T20:32:52.116Z,18.80
2023-05-06T20:37:50.940Z,18.70
2023-05-06T20:40:19.556Z,18.80
2023-05-06T20:42:56.367Z,18.80
2023-05-06T20:45:29.603Z,18.70
2023-05-06T20:48:01.100Z,18.70
2023-05-06T20:50:31.055Z,18.70
2023-05-06T20:53:04.767Z,18.70
2023-05-06T20:55:37.968Z,18.60
2023-05-06T20:58:11.247Z,18.60
2023-05-06T21:00:39.726Z,18.60
2023-05-06T21:03:10.311Z,18.60
2023-05-06T21:05:45.044Z,18.60
2023-05-06T21:08:25.402Z,18.60
2023-05-06T21:10:54.138Z,18.50
2023-05-06T21:13:26.468Z,18.50
2023-05-06T21:15:55.597Z,18.40
2023-05-06T21:18:30.372Z,18.40
2023-05-06T21:20:59.928Z,18.50
2023-05-06T21:23:33.133Z,18.50
2023-05-06T21:26:04.701Z,18.50
2023-05-06T21:28:33.281Z,18.60
2023-05-06T21:31:06.816Z,18.60
2023-05-06T21:33:40.741Z,18.50
2023-05-06T21:36:20.742Z,18.50
2023-05-06T21:39:04.670Z,18.50
2023-05-06T21:41:38.473Z,18.50
2023-05-06T21:44:12.464Z,18.50
2023-05-06T21:46:46.746Z,18.50
2023-05-06T21:49:15.911Z,18.50
2023-05-06T21:51:44.812Z,18.50
2023-05-06T21:54:19.131Z,18.50
2023-05-06T21:56:48.005Z,18.50
2023-05-06T21:59:20.072Z,18.40
2023-05-06T22:01:50.642Z,18.40
2023-05-06T22:04:21.143Z,18.40
2023-05-06T22:06:52.804Z,18.30
2023-05-06T22:09:33.466Z,18.30
2023-05-06T22:12:06.948Z,18.30
2023-05-06T22:14:42.433Z,18.30
2023-05-06T22:17:18.766Z,18.30
2023-05-06T22:19:50.626Z,18.20
2023-05-06T22:22:22.287Z,18.10
2023-05-06T22:24:56.691Z,18.20
2023-05-06T22:27:25.647Z,18.20
2023-05-06T22:29:54.379Z,18.20
2023-05-06T22:32:23.067Z,18.10
2023-05-06T22:34:51.856Z,18.00
2023-05-06T22:39:55.577Z,18.00
2023-05-06T22:42:32.290Z,17.90
2023-05-06T22:45:04.229Z,17.90
2023-05-06T22:47:33.387Z,17.90
2023-05-06T22:50:04.743Z,18.00
2023-05-06T22:52:35.385Z,18.00
2023-05-06T22:55:06.131Z,18.00
2023-05-06T22:57:34.742Z,18.00
2023-05-06T23:00:07.691Z,18.00
2023-05-06T23:02:41.707Z,18.00
2023-05-06T23:05:19.096Z,18.00
2023-05-06T23:07:56.377Z,18.00
2023-05-06T23:10:35.948Z,18.00
2023-05-06T23:13:14.671Z,18.00
2023-05-06T23:15:54.163Z,18.00
2023-05-06T23:18:29.678Z,17.90
2023-05-06T23:21:07.133Z,18.00
2023-05-06T23:23:37.898Z,17.90
2023-05-06T23:26:14.266Z,17.90
2023-05-06T23:28:44.194Z,17.90
2023-05-06T23:31:15.516Z,18.00
2023-05-06T23:33:48.702Z,17.90
2023-05-06T23:36:20.647Z,17.90
2023-05-06T23:38:59.287Z,17.80
2023-05-06T23:41:37.540Z,17.70
2023-05-06T23:44:09.036Z,17.70
2023-05-06T23:46:41.665Z,17.70
2023-05-06T23:49:11.117Z,17.70
2023-05-06T23:51:43.798Z,17.70
2023-05-06T23:54:22.106Z,17.60
2023-05-06T23:56:51.914Z,17.60
2023-05-06T23:59:23.267Z,17.50
